createdAt,value
2018-01-12T13:35:55.932Z,-64
2018-01-12T13:36:55.630Z,-65
2018-01-12T13:37:55.733Z,-67
2018-01-12T13:38:55.688Z,-63
2018-01-12T13:39:55.740Z,-65
2018-01-12T13:40:55.628Z,-66
2018-01-12T13:41:56.078Z,-68
2018-01-12T13:42:55.631Z,-67
2018-01-12T13:43:55.735Z,-69
2018-01-12T13:44:55.628Z,-68
2018-01-12T13:45:55.743Z,-69
2018-01-12T13:46:55.628Z,-65
2018-01-12T13:47:55.774Z,-67
2018-01-12T13:48:55.633Z,-67
2018-01-12T13:49:55.741Z,-66
2018-01-12T13:50:55.631Z,-65
2018-01-12T13:51:55.749Z,-65
2018-01-12T13:52:55.632Z,-66
2018-01-12T13:53:55.921Z,-66
2018-01-12T13:54:55.802Z,-65
2018-01-12T13:55:55.760Z,-64
2018-01-12T13:56:55.640Z,-65
2018-01-12T13:57:55.756Z,-66
2018-01-12T13:58:55.632Z,-67
2018-01-12T13:59:55.778Z,-65
2018-01-12T14:00:55.668Z,-66
2018-01-12T14:01:55.746Z,-64
2018-01-12T14:02:55.736Z,-63
2018-01-12T14:03:55.750Z,-64
2018-01-12T14:04:55.645Z,-65
2018-01-12T14:05:56.172Z,-65
2018-01-12T14:06:55.645Z,-64
2018-01-12T14:07:55.825Z,-63
2018-01-12T14:08:55.718Z,-64
2018-01-12T14:09:55.786Z,-65
2018-01-12T14:10:55.674Z,-64
2018-01-12T14:11:55.796Z,-65
2018-01-12T14:12:55.644Z,-63
2018-01-12T14:13:55.758Z,-63
2018-01-12T14:14:55.658Z,-63
2018-01-12T14:15:55.768Z,-64
2018-01-12T14:16:55.688Z,-64
2018-01-12T14:17:55.775Z,-64
2018-01-12T14:18:55.671Z,-66
2018-01-12T14:19:55.767Z,-64
2018-01-12T14:20:55.671Z,-62
2018-01-12T14:21:55.800Z,-63
2018-01-12T14:22:55.665Z,-63
2018-01-12T14:23:55.778Z,-65
2018-01-12T14:24:55.662Z,-64
2018-01-12T14:25:55.784Z,-64
2018-01-12T14:26:55.696Z,-63
2018-01-12T14:27:55.774Z,-63
2018-01-12T14:28:55.649Z,-64
2018-01-12T14:29:55.826Z,-64
2018-01-12T14:30:55.674Z,-64
2018-01-12T14:31:55.810Z,-65
2018-01-12T14:32:55.669Z,-64
2018-01-12T14:33:55.787Z,-64
2018-01-12T14:34:55.669Z,-64
2018-01-12T14:35:55.776Z,-64
2018-01-12T14:36:55.699Z,-65
2018-01-12T14:37:55.776Z,-65
2018-01-12T14:38:55.674Z,-63
2018-01-12T14:39:55.794Z,-64
2018-01-12T14:40:55.697Z,-66
2018-01-12T14:41:55.991Z,-68
2018-01-12T14:42:55.681Z,-66
2018-01-12T14:43:55.793Z,-63
2018-01-12T14:44:55.688Z,-66
2018-01-12T14:45:55.786Z,-67
2018-01-12T14:46:55.665Z,-66
2018-01-12T14:47:55.981Z,-67
2018-01-12T14:48:55.673Z,-66
2018-01-12T14:49:55.788Z,-69
2018-01-12T14:50:55.684Z,-66
2018-01-12T14:51:55.813Z,-67
2018-01-12T14:52:55.685Z,-66
2018-01-12T14:53:55.799Z,-67
2018-01-12T14:54:55.678Z,-67
2018-01-12T14:55:55.784Z,-67
2018-01-12T14:56:55.711Z,-66
2018-01-12T14:57:55.819Z,-65
2018-01-12T14:58:55.686Z,-66
2018-01-12T14:59:55.794Z,-68
2018-01-12T15:00:55.685Z,-68
2018-01-12T15:01:55.870Z,-65
2018-01-12T15:02:55.828Z,-66
2018-01-12T15:03:55.815Z,-65
2018-01-12T15:04:55.688Z,-64
2018-01-12T15:05:55.806Z,-66
2018-01-12T15:06:55.700Z,-68
2018-01-12T15:07:55.838Z,-68
2018-01-12T15:08:55.703Z,-66
2018-01-12T15:09:55.857Z,-66
2018-01-12T15:10:55.706Z,-68
2018-01-12T15:11:55.813Z,-66
2018-01-12T15:12:55.727Z,-68
2018-01-12T15:13:55.804Z,-66
2018-01-12T15:14:56.361Z,-66
2018-01-12T15:15:55.825Z,-66
2018-01-12T15:16:55.714Z,-66
2018-01-12T15:17:56.738Z,-66
2018-01-12T15:18:56.169Z,-65
2018-01-12T15:19:56.619Z,-66
2018-01-12T15:20:55.722Z,-65
2018-01-12T15:21:55.815Z,-67
2018-01-12T15:22:55.784Z,-67
2018-01-12T15:23:55.839Z,-68
2018-01-12T15:24:55.713Z,-66
2018-01-12T15:25:55.821Z,-67
2018-01-12T15:26:55.716Z,-66
2018-01-12T15:27:55.884Z,-66
2018-01-12T15:28:55.710Z,-66
2018-01-12T15:29:55.826Z,-65
2018-01-12T15:30:55.764Z,-66
2018-01-12T15:33:07.850Z,-66
2018-01-12T15:34:08.087Z,-69
2018-01-12T15:35:07.797Z,-67
2018-01-12T15:36:07.907Z,-66
2018-01-12T15:37:07.802Z,-65
2018-01-12T15:38:07.936Z,-67
2018-01-12T15:39:07.799Z,-66
2018-01-12T15:40:07.923Z,-65
2018-01-12T15:41:07.942Z,-68
2018-01-12T15:42:07.898Z,-66
2018-01-12T15:43:07.886Z,-66
2018-01-12T15:44:07.910Z,-64
2018-01-12T15:45:07.808Z,-66
2018-01-12T15:46:07.924Z,-66
2018-01-12T15:47:07.808Z,-63
2018-01-12T15:48:07.926Z,-64
2018-01-12T15:49:07.835Z,-64
2018-01-12T15:50:07.923Z,-65
2018-01-12T15:51:07.811Z,-65
2018-01-12T15:52:07.930Z,-66
2018-01-12T15:53:07.838Z,-66
2018-01-12T15:54:07.931Z,-63
2018-01-12T15:55:07.817Z,-67
2018-01-12T17:57:06.610Z,-65
2018-01-12T17:58:06.655Z,-65
2018-01-12T17:59:06.528Z,-64
2018-01-12T18:00:06.628Z,-64
2018-01-12T18:01:06.581Z,-64
2018-01-12T18:02:06.681Z,-64
2018-01-12T18:03:06.525Z,-70
2018-01-12T18:04:06.632Z,-66
2018-01-12T18:05:06.529Z,-69
2018-01-12T18:06:06.626Z,-66
2018-01-12T18:07:06.611Z,-66
2018-01-12T18:08:06.641Z,-66
2018-01-12T18:09:06.533Z,-68
2018-01-12T18:10:06.644Z,-66
2018-01-12T18:11:06.531Z,-69
2018-01-12T18:12:06.653Z,-68
2018-01-12T18:13:06.657Z,-70
2018-01-12T18:14:06.643Z,-69
2018-01-12T18:15:06.533Z,-72
2018-01-12T18:16:06.646Z,-70
2018-01-12T18:17:06.534Z,-68
2018-01-12T18:18:06.653Z,-73
2018-01-12T18:19:06.566Z,-69
2018-01-12T18:20:06.673Z,-72
2018-01-12T18:21:06.535Z,-71
2018-01-12T18:22:06.646Z,-67
2018-01-12T18:23:06.550Z,-71
2018-01-12T18:24:06.850Z,-69
2018-01-12T18:25:06.563Z,-69
2018-01-12T18:26:06.651Z,-67
2018-01-12T18:27:06.537Z,-71
2018-01-12T18:28:06.656Z,-70
2018-01-12T18:29:06.544Z,-69
2018-01-12T18:30:06.686Z,-70
2018-01-12T18:31:06.546Z,-70
2018-01-12T18:32:06.651Z,-70
2018-01-12T18:33:06.545Z,-72
2018-01-12T18:34:06.676Z,-73
2018-01-12T18:35:06.603Z,-70
2018-01-12T18:36:07.027Z,-69
2018-01-12T18:37:06.560Z,-70
2018-01-12T18:38:06.671Z,-71
2018-01-12T18:39:06.553Z,-70
2018-01-12T18:40:06.665Z,-68
2018-01-12T18:41:06.555Z,-69
2018-01-12T18:42:06.697Z,-73
2018-01-12T18:43:06.555Z,-67
2018-01-12T18:44:06.664Z,-63
2018-01-12T18:45:06.566Z,-65
2018-01-12T18:46:06.678Z,-67
2018-01-12T18:47:06.590Z,-66
2018-01-12T18:48:06.667Z,-65
2018-01-12T18:49:06.567Z,-65
2018-01-12T18:50:06.688Z,-67
2018-01-12T18:51:06.566Z,-65
2018-01-12T18:52:06.709Z,-62
2018-01-12T18:53:06.569Z,-65
2018-01-12T18:54:06.728Z,-66
2018-01-12T18:55:06.712Z,-65
2018-01-12T18:56:06.666Z,-64
2018-01-12T18:57:06.575Z,-63
2018-01-12T18:58:06.695Z,-63
2018-01-12T18:59:06.568Z,-65
2018-01-12T19:00:06.721Z,-65
2018-01-12T19:01:06.568Z,-65
2018-01-12T19:02:06.680Z,-66
2018-01-12T19:03:06.591Z,-65
2018-01-12T19:04:06.695Z,-66
2018-01-12T19:05:06.579Z,-66
2018-01-12T19:06:06.678Z,-68
2018-01-12T19:07:06.571Z,-64
2018-01-12T19:08:06.723Z,-68
2018-01-12T19:09:06.577Z,-68
2018-01-12T19:10:06.689Z,-69
2018-01-12T19:11:06.585Z,-69
2018-01-12T19:12:06.712Z,-70
2018-01-12T19:13:06.574Z,-69
2018-01-12T19:14:06.724Z,-67
